createdAt,value
2017-01-16T00:00:25.156Z,922.69
2017-01-16T00:00:53.287Z,922.72
2017-01-16T00:01:21.636Z,922.78
2017-01-16T00:01:49.763Z,922.73
2017-01-16T00:02:17.969Z,922.74
2017-01-16T00:02:46.303Z,922.75
2017-01-16T00:03:14.573Z,922.79
2017-01-16T00:03:42.920Z,922.74
2017-01-16T00:04:11.076Z,922.73
2017-01-16T00:04:39.309Z,922.72
2017-01-16T00:05:50.733Z,922.71
2017-01-16T00:06:18.779Z,922.66
2017-01-16T00:06:47.128Z,922.69
2017-01-16T00:07:15.480Z,922.69
2017-01-16T00:07:43.790Z,922.65
2017-01-16T00:08:12.113Z,922.65
2017-01-16T00:08:40.442Z,922.66
2017-01-16T00:09:08.545Z,922.67
2017-01-16T00:09:36.692Z,922.67
2017-01-16T00:10:04.940Z,922.68
2017-01-16T00:10:33.074Z,922.71
2017-01-16T00:11:44.452Z,922.67
2017-01-16T00:12:12.714Z,922.66
2017-01-16T00:12:41.048Z,922.65
2017-01-16T00:13:09.449Z,922.64
2017-01-16T00:13:37.709Z,922.62
2017-01-16T00:14:05.880Z,922.62
2017-01-16T00:14:34.170Z,922.63
2017-01-16T00:15:02.479Z,922.63
2017-01-16T00:15:30.647Z,922.61
2017-01-16T00:15:58.922Z,922.59
2017-01-16T00:16:27.290Z,922.61
2017-01-16T00:17:38.777Z,922.6
2017-01-16T00:18:07.154Z,922.59
2017-01-16T00:18:35.531Z,922.6
2017-01-16T00:19:03.843Z,922.64
2017-01-16T00:19:32.105Z,922.65
2017-01-16T00:20:00.370Z,922.63
2017-01-16T00:20:28.746Z,922.65
2017-01-16T00:20:57.146Z,922.65
2017-01-16T00:21:25.418Z,922.69
2017-01-16T00:21:53.788Z,922.66
2017-01-16T00:22:22.061Z,922.74
2017-01-16T00:23:33.454Z,922.73
2017-01-16T00:24:01.536Z,922.78
2017-01-16T00:24:29.720Z,922.78
2017-01-16T00:24:58.123Z,922.75
2017-01-16T00:25:26.380Z,922.78
2017-01-16T00:25:54.648Z,922.79
2017-01-16T00:26:22.933Z,922.77
2017-01-16T00:26:51.337Z,922.8
2017-01-16T00:27:19.505Z,922.76
2017-01-16T00:27:47.688Z,922.76
2017-01-16T00:28:16.056Z,922.76
2017-01-16T00:29:27.545Z,922.77
2017-01-16T00:29:55.826Z,922.79
2017-01-16T00:30:24.007Z,922.76
2017-01-16T00:30:52.423Z,922.78
2017-01-16T00:31:20.772Z,922.79
2017-01-16T00:31:49.037Z,922.8
2017-01-16T00:32:17.411Z,922.79
2017-01-16T00:32:45.624Z,922.81
2017-01-16T00:33:13.981Z,922.78
2017-01-16T00:33:42.163Z,922.8
2017-01-16T00:34:10.437Z,922.78
2017-01-16T00:35:21.833Z,922.79
2017-01-16T00:35:50.026Z,922.85
2017-01-16T00:36:18.300Z,922.89
2017-01-16T00:36:46.609Z,922.85
2017-01-16T00:37:14.965Z,922.81
2017-01-16T00:37:43.329Z,922.84
2017-01-16T00:38:11.609Z,922.83
2017-01-16T00:38:40.013Z,922.84
2017-01-16T00:39:08.274Z,922.83
2017-01-16T00:39:36.640Z,922.82
2017-01-16T00:40:04.911Z,922.8
2017-01-16T00:41:16.302Z,922.79
2017-01-16T00:41:44.401Z,922.8
2017-01-16T00:42:12.778Z,922.77
2017-01-16T00:42:41.201Z,922.76
2017-01-16T00:43:09.395Z,922.75
2017-01-16T00:43:37.759Z,922.75
2017-01-16T00:44:06.044Z,922.75
2017-01-16T00:44:34.262Z,922.76
2017-01-16T00:45:02.614Z,922.78
2017-01-16T00:45:30.987Z,922.77
2017-01-16T00:45:59.348Z,922.73
2017-01-16T00:47:10.741Z,922.76
2017-01-16T00:47:38.840Z,922.76
2017-01-16T00:48:07.025Z,922.77
2017-01-16T00:48:35.334Z,922.75
2017-01-16T00:49:03.603Z,922.74
2017-01-16T00:49:31.861Z,922.72
2017-01-16T00:50:00.138Z,922.73
2017-01-16T00:50:28.800Z,922.71
2017-01-16T00:50:57.066Z,922.7
2017-01-16T00:51:25.434Z,922.7
2017-01-16T00:51:53.802Z,922.69
2017-01-16T00:53:05.200Z,922.67
2017-01-16T00:53:33.572Z,922.66
2017-01-16T00:54:01.851Z,922.65
2017-01-16T00:54:30.263Z,922.69
2017-01-16T00:54:58.429Z,922.68
2017-01-16T00:55:26.789Z,922.67
2017-01-16T00:55:54.979Z,922.67
2017-01-16T00:56:23.218Z,922.69
2017-01-16T00:56:51.203Z,922.68
2017-01-16T00:57:19.480Z,922.68
2017-01-16T00:57:47.848Z,922.7
2017-01-16T00:58:59.330Z,922.64
2017-01-16T00:59:27.523Z,922.67
2017-01-16T00:59:55.892Z,922.66
2017-01-16T01:00:24.297Z,922.7
2017-01-16T01:00:52.654Z,922.66
2017-01-16T01:01:20.834Z,922.7
2017-01-16T01:01:49.959Z,922.68
2017-01-16T01:02:18.168Z,922.7
2017-01-16T01:02:46.956Z,922.72
2017-01-16T01:03:15.229Z,922.71
2017-01-16T01:03:43.404Z,922.71
2017-01-16T01:04:54.891Z,922.74
2017-01-16T01:05:23.176Z,922.74
2017-01-16T01:05:51.652Z,922.78
2017-01-16T01:06:19.971Z,922.81
2017-01-16T01:06:48.327Z,922.79
2017-01-16T01:07:16.684Z,922.79
2017-01-16T01:07:45.063Z,922.82
2017-01-16T01:08:13.462Z,922.8
2017-01-16T01:08:41.544Z,922.86
2017-01-16T01:09:09.726Z,922.84
2017-01-16T01:09:38.094Z,922.83
2017-01-16T01:10:49.396Z,922.84
2017-01-16T01:11:17.775Z,922.85
2017-01-16T01:11:45.865Z,922.8
2017-01-16T01:12:14.270Z,922.83
2017-01-16T01:12:42.625Z,922.85
2017-01-16T01:13:10.942Z,922.86
2017-01-16T01:13:39.299Z,922.86
2017-01-16T01:14:07.694Z,922.87
2017-01-16T01:14:35.966Z,922.91
2017-01-16T01:15:04.334Z,922.89
2017-01-16T01:15:32.613Z,922.92
2017-01-16T01:16:44.004Z,922.94
2017-01-16T01:17:12.380Z,923
2017-01-16T01:17:40.463Z,923.03
2017-01-16T01:18:08.867Z,923.02
2017-01-16T01:18:37.131Z,923.06
2017-01-16T01:19:05.493Z,923.03
2017-01-16T01:19:33.872Z,923.1
2017-01-16T01:20:02.174Z,923.11
2017-01-16T01:20:30.350Z,923.12
2017-01-16T01:20:58.532Z,923.13
2017-01-16T01:21:26.770Z,923.13
2017-01-16T01:22:38.134Z,923.14
2017-01-16T01:23:06.511Z,923.21
2017-01-16T01:23:34.695Z,923.15
2017-01-16T01:24:02.999Z,923.18
2017-01-16T01:24:31.337Z,923.17
2017-01-16T01:24:59.684Z,923.18
2017-01-16T01:25:27.964Z,923.14
2017-01-16T01:25:56.273Z,923.18
2017-01-16T01:26:24.538Z,923.17
2017-01-16T01:26:52.907Z,923.2
2017-01-16T01:27:21.084Z,923.16
2017-01-16T01:28:32.480Z,923.15
2017-01-16T01:29:00.763Z,923.2
2017-01-16T01:29:29.128Z,923.18
2017-01-16T01:29:57.528Z,923.2
2017-01-16T01:30:25.883Z,923.15
2017-01-16T01:30:54.056Z,923.18
2017-01-16T01:31:22.341Z,923.18
2017-01-16T01:31:50.730Z,923.19
2017-01-16T01:32:19.087Z,923.18
2017-01-16T01:32:47.361Z,923.17
2017-01-16T01:33:15.727Z,923.18
2017-01-16T01:34:27.021Z,923.19
2017-01-16T01:34:55.402Z,923.19
2017-01-16T01:35:23.768Z,923.23
2017-01-16T01:35:52.171Z,923.25
2017-01-16T01:36:20.433Z,923.23
2017-01-16T01:36:48.701Z,923.31
2017-01-16T01:37:17.077Z,923.28
2017-01-16T01:37:45.387Z,923.28
2017-01-16T01:38:13.507Z,923.32
2017-01-16T01:38:41.597Z,923.28
2017-01-16T01:39:09.969Z,923.27
2017-01-16T01:40:21.456Z,923.28
2017-01-16T01:40:49.830Z,923.25
2017-01-16T01:41:18.193Z,923.21
2017-01-16T01:41:46.599Z,923.22
2017-01-16T01:42:14.957Z,923.24
2017-01-16T01:42:43.290Z,923.22
2017-01-16T01:43:11.488Z,923.18
2017-01-16T01:43:39.795Z,923.21
2017-01-16T01:44:07.966Z,923.16
2017-01-16T01:44:36.332Z,923.16
2017-01-16T01:45:04.698Z,923.24
2017-01-16T01:46:16.311Z,923.25
2017-01-16T01:46:44.475Z,923.27
2017-01-16T01:47:12.848Z,923.29
2017-01-16T01:47:41.251Z,923.31
2017-01-16T01:48:09.518Z,923.29
2017-01-16T01:48:37.604Z,923.32
2017-01-16T01:49:05.696Z,923.29
2017-01-16T01:49:33.904Z,923.28
2017-01-16T01:50:01.896Z,923.26
2017-01-16T01:50:30.077Z,923.31
2017-01-16T01:50:58.445Z,923.27
2017-01-16T01:52:09.720Z,923.31
2017-01-16T01:52:38.008Z,923.31
2017-01-16T01:53:06.284Z,923.32
2017-01-16T01:53:34.712Z,923.35
2017-01-16T01:54:02.951Z,923.33
2017-01-16T01:54:31.306Z,923.39
2017-01-16T01:54:59.682Z,923.35
2017-01-16T01:55:27.997Z,923.38
2017-01-16T01:55:56.223Z,923.37
2017-01-16T01:56:24.490Z,923.35
2017-01-16T01:56:52.856Z,923.34
2017-01-16T01:58:04.037Z,923.34
2017-01-16T01:58:32.331Z,923.36
2017-01-16T01:59:00.698Z,923.39
2017-01-16T01:59:28.819Z,923.35
2017-01-16T01:59:57.092Z,923.35
2017-01-16T02:00:25.448Z,923.32
2017-01-16T02:00:53.825Z,923.29
2017-01-16T02:01:22.228Z,923.31
2017-01-16T02:01:50.400Z,923.31
2017-01-16T02:02:18.913Z,923.32
2017-01-16T02:02:46.994Z,923.3
2017-01-16T02:03:58.378Z,923.22
2017-01-16T02:04:26.483Z,923.17
2017-01-16T02:04:54.760Z,923.2
2017-01-16T02:05:23.165Z,923.12
2017-01-16T02:05:51.336Z,923.15
2017-01-16T02:06:19.604Z,923.13
2017-01-16T02:06:47.967Z,923.12
2017-01-16T02:07:16.227Z,923.16
2017-01-16T02:07:44.574Z,923.16
2017-01-16T02:08:12.942Z,923.15
2017-01-16T02:08:41.304Z,923.16
2017-01-16T02:09:52.773Z,923.12
2017-01-16T02:10:21.011Z,923.08
2017-01-16T02:10:49.330Z,923.05
2017-01-16T02:11:17.730Z,923.04
2017-01-16T02:11:45.966Z,923.02
2017-01-16T02:12:14.178Z,923.04
2017-01-16T02:12:42.416Z,923.02
2017-01-16T02:13:10.681Z,922.98
2017-01-16T02:13:38.900Z,923
2017-01-16T02:14:07.154Z,922.96
2017-01-16T02:14:35.480Z,922.96
2017-01-16T02:15:46.919Z,922.92
2017-01-16T02:16:15.255Z,922.91
2017-01-16T02:16:43.502Z,922.98
2017-01-16T02:17:11.765Z,923
2017-01-16T02:17:39.997Z,923.05
2017-01-16T02:18:08.030Z,923.05
2017-01-16T02:18:36.309Z,923.07
2017-01-16T02:19:04.713Z,923.06
2017-01-16T02:19:33.025Z,923.13
2017-01-16T02:20:01.159Z,923.14
2017-01-16T02:20:29.291Z,923.16
2017-01-16T02:21:40.623Z,923.17
2017-01-16T02:22:08.951Z,923.19
2017-01-16T02:22:37.178Z,923.17
2017-01-16T02:23:05.489Z,923.2
2017-01-16T02:23:33.664Z,923.21
2017-01-16T02:24:02.023Z,923.19
2017-01-16T02:24:30.397Z,923.14
2017-01-16T02:24:58.799Z,923.16
2017-01-16T02:25:27.159Z,923.13
2017-01-16T02:25:55.252Z,923.12
2017-01-16T02:26:23.621Z,923.15
2017-01-16T02:27:35.010Z,923.08
2017-01-16T02:28:03.154Z,923.02
2017-01-16T02:28:31.475Z,922.97
2017-01-16T02:28:59.652Z,923
2017-01-16T02:29:27.914Z,922.98
2017-01-16T02:29:56.273Z,923
2017-01-16T02:30:24.600Z,922.96
2017-01-16T02:30:52.949Z,922.95
2017-01-16T02:31:21.167Z,922.95
2017-01-16T02:31:49.485Z,922.95
2017-01-16T02:32:17.799Z,922.93
2017-01-16T02:33:29.131Z,922.93
2017-01-16T02:33:57.461Z,922.95
2017-01-16T02:34:25.683Z,922.95
2017-01-16T02:34:53.847Z,923.01
2017-01-16T02:35:21.869Z,922.98
2017-01-16T02:35:50.079Z,923.07
2017-01-16T02:36:18.238Z,923.07
2017-01-16T02:36:46.422Z,923.06
2017-01-16T02:37:14.564Z,923.06
2017-01-16T02:37:42.943Z,923.06
2017-01-16T02:38:11.307Z,923.06
2017-01-16T02:39:22.605Z,923.03
2017-01-16T02:39:50.893Z,923.08
2017-01-16T02:40:19.166Z,923.07
2017-01-16T02:40:47.473Z,923.09
2017-01-16T02:41:15.733Z,923.06
2017-01-16T02:41:43.898Z,923.06
2017-01-16T02:42:12.083Z,922.99
2017-01-16T02:42:40.485Z,923.04
2017-01-16T02:43:08.653Z,923
2017-01-16T02:43:36.931Z,923.03
2017-01-16T02:44:05.299Z,922.98
2017-01-16T02:45:16.598Z,923.02
2017-01-16T02:45:44.885Z,922.98
2017-01-16T02:46:13.158Z,922.98
2017-01-16T02:46:41.476Z,922.99
2017-01-16T02:47:09.835Z,922.97
2017-01-16T02:47:38.095Z,922.99
2017-01-16T02:48:06.379Z,922.98
2017-01-16T02:48:34.594Z,923
2017-01-16T02:49:02.856Z,922.97
2017-01-16T02:49:31.230Z,922.95
2017-01-16T02:49:59.500Z,922.9
2017-01-16T02:51:10.818Z,922.88
2017-01-16T02:51:39.241Z,922.81
2017-01-16T02:52:08.197Z,922.78
2017-01-16T02:52:37.507Z,922.75
2017-01-16T02:53:06.829Z,922.76
2017-01-16T02:53:35.972Z,922.73
2017-01-16T02:54:04.347Z,922.68
2017-01-16T02:54:32.658Z,922.66
2017-01-16T02:55:00.829Z,922.65
2017-01-16T02:55:29.108Z,922.61
2017-01-16T02:55:57.291Z,922.61
2017-01-16T02:57:08.587Z,922.59
2017-01-16T02:57:36.877Z,922.59
2017-01-16T02:58:04.928Z,922.54
2017-01-16T02:58:33.279Z,922.57
2017-01-16T02:59:01.309Z,922.54
2017-01-16T02:59:29.522Z,922.53
2017-01-16T02:59:57.688Z,922.55
2017-01-16T03:00:25.952Z,922.54
2017-01-16T03:00:54.194Z,922.58
2017-01-16T03:01:22.419Z,922.56
2017-01-16T03:01:50.742Z,922.56
2017-01-16T03:03:02.019Z,922.6
2017-01-16T03:03:30.208Z,922.63
2017-01-16T03:03:58.337Z,922.66
2017-01-16T03:04:26.402Z,922.63
2017-01-16T03:04:54.523Z,922.61
2017-01-16T03:05:22.730Z,922.61
2017-01-16T03:05:50.876Z,922.64
2017-01-16T03:06:19.131Z,922.64
2017-01-16T03:06:47.440Z,922.61
2017-01-16T03:07:15.574Z,922.56
2017-01-16T03:07:43.707Z,922.6
2017-01-16T03:08:55.040Z,922.6
2017-01-16T03:09:23.085Z,922.61
2017-01-16T03:09:51.219Z,922.62
2017-01-16T03:10:19.284Z,922.58
2017-01-16T03:10:47.592Z,922.63
2017-01-16T03:11:15.619Z,922.62
2017-01-16T03:11:43.946Z,922.6
2017-01-16T03:12:12.208Z,922.56
2017-01-16T03:12:40.565Z,922.61
2017-01-16T03:13:08.837Z,922.62
2017-01-16T03:13:37.200Z,922.54
2017-01-16T03:14:48.625Z,922.53
2017-01-16T03:15:16.787Z,922.46
2017-01-16T03:15:45.147Z,922.47
2017-01-16T03:16:13.400Z,922.47
2017-01-16T03:16:41.515Z,922.51
2017-01-16T03:17:09.829Z,922.48
2017-01-16T03:17:38.157Z,922.49
2017-01-16T03:18:06.324Z,922.51
2017-01-16T03:18:34.454Z,922.51
2017-01-16T03:19:02.588Z,922.5
2017-01-16T03:19:30.901Z,922.55
2017-01-16T03:20:42.236Z,922.49
2017-01-16T03:21:10.386Z,922.46
2017-01-16T03:21:38.609Z,922.49
2017-01-16T03:22:06.960Z,922.47
2017-01-16T03:22:35.262Z,922.48
2017-01-16T03:23:03.382Z,922.44
2017-01-16T03:23:31.624Z,922.49
2017-01-16T03:23:59.931Z,922.52
2017-01-16T03:24:27.947Z,922.56
2017-01-16T03:24:56.091Z,922.52
2017-01-16T03:25:24.222Z,922.5
2017-01-16T03:26:35.640Z,922.48
2017-01-16T03:27:03.879Z,922.48
2017-01-16T03:27:32.233Z,922.46
2017-01-16T03:28:00.532Z,922.43
2017-01-16T03:28:28.794Z,922.43
2017-01-16T03:28:57.158Z,922.43
2017-01-16T03:29:25.443Z,922.4
2017-01-16T03:29:53.668Z,922.36
2017-01-16T03:30:21.839Z,922.35
2017-01-16T03:30:49.838Z,922.31
2017-01-16T03:31:18.204Z,922.3
2017-01-16T03:32:29.689Z,922.27
2017-01-16T03:32:57.971Z,922.15
2017-01-16T03:33:26.335Z,922.14
2017-01-16T03:33:54.730Z,922.1
2017-01-16T03:34:22.987Z,922.12
2017-01-16T03:34:51.255Z,922.11
2017-01-16T03:35:19.540Z,922.06
2017-01-16T03:35:47.845Z,922.07
2017-01-16T03:36:16.115Z,922.09
2017-01-16T03:36:44.297Z,922.07
2017-01-16T03:37:12.485Z,922
2017-01-16T03:38:23.875Z,922.03
2017-01-16T03:38:52.155Z,922.03
2017-01-16T03:39:20.521Z,922.06
2017-01-16T03:39:48.827Z,922.05
2017-01-16T03:40:17.184Z,922.06
2017-01-16T03:40:45.352Z,922.09
2017-01-16T03:41:13.966Z,922.11
2017-01-16T03:41:42.130Z,922.12
2017-01-16T03:42:10.378Z,922.14
2017-01-16T03:42:38.505Z,922.12
2017-01-16T03:43:06.728Z,922.13
2017-01-16T03:44:18.150Z,922.17
2017-01-16T03:44:46.389Z,922.17
2017-01-16T03:45:14.614Z,922.18
2017-01-16T03:45:42.786Z,922.15
2017-01-16T03:46:11.087Z,922.16
2017-01-16T03:46:39.306Z,922.16
2017-01-16T03:47:07.538Z,922.15
2017-01-16T03:47:35.722Z,922.15
2017-01-16T03:48:03.804Z,922.16
2017-01-16T03:48:32.172Z,922.2
2017-01-16T03:49:00.540Z,922.16
2017-01-16T03:50:11.926Z,922.17
2017-01-16T03:50:40.115Z,922.16
2017-01-16T03:51:08.304Z,922.12
2017-01-16T03:51:36.516Z,922.14
2017-01-16T03:52:04.873Z,922.07
2017-01-16T03:52:33.227Z,922.09
2017-01-16T03:53:01.826Z,922.05
2017-01-16T03:53:29.995Z,922.05
2017-01-16T03:53:58.176Z,922.06
2017-01-16T03:54:26.453Z,922.06
2017-01-16T03:54:54.635Z,922.03
2017-01-16T03:56:06.120Z,922.02
2017-01-16T03:56:34.214Z,921.99
2017-01-16T03:57:02.585Z,922
2017-01-16T03:57:30.985Z,921.93
2017-01-16T03:57:59.252Z,921.93
2017-01-16T03:58:27.604Z,921.92
2017-01-16T03:58:55.799Z,921.94
2017-01-16T03:59:23.921Z,921.95
2017-01-16T03:59:51.909Z,921.99
2017-01-16T04:00:20.279Z,921.97
2017-01-16T04:00:48.643Z,921.95
2017-01-16T04:02:00.123Z,921.96
2017-01-16T04:02:28.410Z,921.97
2017-01-16T04:02:56.773Z,921.96
2017-01-16T04:03:25.077Z,921.95
2017-01-16T04:03:53.243Z,921.91
2017-01-16T04:04:21.598Z,921.91
2017-01-16T04:04:49.882Z,921.89
2017-01-16T04:05:18.185Z,921.86
2017-01-16T04:05:46.455Z,921.86
2017-01-16T04:06:15.400Z,921.85
2017-01-16T04:06:43.763Z,921.84
2017-01-16T04:07:55.154Z,921.79
2017-01-16T04:08:23.536Z,921.81
2017-01-16T04:08:51.914Z,921.82
2017-01-16T04:09:20.309Z,921.79
2017-01-16T04:09:48.663Z,921.78
2017-01-16T04:10:16.926Z,921.82
2017-01-16T04:10:45.211Z,921.81
2017-01-16T04:11:13.522Z,921.85
2017-01-16T04:11:41.699Z,921.83
2017-01-16T04:12:09.881Z,921.84
2017-01-16T04:12:38.148Z,921.83
2017-01-16T04:13:49.630Z,921.82
2017-01-16T04:14:17.824Z,921.83
2017-01-16T04:14:46.105Z,921.81
2017-01-16T04:15:14.404Z,921.8
2017-01-16T04:15:42.753Z,921.86
2017-01-16T04:16:11.018Z,921.78
2017-01-16T04:16:39.303Z,921.78
2017-01-16T04:17:07.707Z,921.76
2017-01-16T04:17:36.064Z,921.82
2017-01-16T04:18:04.434Z,921.77
2017-01-16T04:18:32.704Z,921.75
2017-01-16T04:19:44.189Z,921.76
2017-01-16T04:20:12.379Z,921.75
2017-01-16T04:20:40.653Z,921.74
2017-01-16T04:21:08.955Z,921.75
2017-01-16T04:21:37.310Z,921.77
2017-01-16T04:22:05.673Z,921.77
2017-01-16T04:22:34.050Z,921.77
2017-01-16T04:23:02.455Z,921.75
2017-01-16T04:23:30.622Z,921.77
2017-01-16T04:23:58.898Z,921.78
2017-01-16T04:24:27.076Z,921.78
2017-01-16T04:25:38.561Z,921.78
2017-01-16T04:26:06.935Z,921.77
2017-01-16T04:26:35.120Z,921.78
2017-01-16T04:27:03.518Z,921.76
2017-01-16T04:27:31.688Z,921.74
2017-01-16T04:28:00.050Z,921.76
2017-01-16T04:28:28.235Z,921.78
2017-01-16T04:28:56.533Z,921.77
2017-01-16T04:29:24.707Z,921.74
2017-01-16T04:29:52.983Z,921.73
2017-01-16T04:30:21.250Z,921.72
2017-01-16T04:31:32.544Z,921.75
2017-01-16T04:32:00.730Z,921.73
2017-01-16T04:32:28.920Z,921.72
2017-01-16T04:32:57.317Z,921.75
2017-01-16T04:33:25.575Z,921.73
2017-01-16T04:33:53.746Z,921.72
2017-01-16T04:34:22.123Z,921.73
2017-01-16T04:34:50.524Z,921.79
2017-01-16T04:35:18.603Z,921.76
2017-01-16T04:35:46.880Z,921.8
2017-01-16T04:36:14.966Z,921.79
2017-01-16T04:37:26.453Z,921.79
2017-01-16T04:37:54.736Z,921.81
2017-01-16T04:38:22.920Z,921.8
2017-01-16T04:38:51.321Z,921.8
2017-01-16T04:39:19.503Z,921.84
2017-01-16T04:39:47.762Z,921.83
2017-01-16T04:40:15.949Z,921.83
2017-01-16T04:40:44.162Z,921.82
2017-01-16T04:41:12.338Z,921.79
2017-01-16T04:41:40.612Z,921.82
2017-01-16T04:42:08.976Z,921.84
2017-01-16T04:43:20.364Z,921.82
2017-01-16T04:43:48.651Z,921.84
2017-01-16T04:44:16.930Z,921.83
2017-01-16T04:44:45.166Z,921.8
2017-01-16T04:45:13.426Z,921.83
2017-01-16T04:45:41.689Z,921.8
2017-01-16T04:46:09.884Z,921.81
2017-01-16T04:46:38.288Z,921.82
2017-01-16T04:47:06.459Z,921.8
2017-01-16T04:47:34.731Z,921.8
2017-01-16T04:48:03.005Z,921.8
2017-01-16T04:49:14.487Z,921.83
2017-01-16T04:49:42.772Z,921.78
2017-01-16T04:50:11.048Z,921.79
2017-01-16T04:50:39.256Z,921.78
2017-01-16T04:51:07.612Z,921.8
2017-01-16T04:51:35.907Z,921.75
2017-01-16T04:52:04.189Z,921.78
2017-01-16T04:52:32.588Z,921.79
2017-01-16T04:53:00.573Z,921.74
2017-01-16T04:53:28.847Z,921.77
2017-01-16T04:53:57.211Z,921.78
2017-01-16T04:55:08.695Z,921.79
2017-01-16T04:55:36.978Z,921.78
2017-01-16T04:56:05.257Z,921.78
2017-01-16T04:56:33.558Z,921.74
2017-01-16T04:57:01.914Z,921.79
2017-01-16T04:57:30.177Z,921.77
2017-01-16T04:57:58.462Z,921.75
2017-01-16T04:58:26.863Z,921.77
2017-01-16T04:58:55.037Z,921.75
2017-01-16T04:59:23.405Z,921.74
2017-01-16T04:59:51.773Z,921.77
2017-01-16T05:01:03.070Z,921.74
2017-01-16T05:01:31.166Z,921.72
2017-01-16T05:01:59.447Z,921.76
2017-01-16T05:02:27.841Z,921.76
2017-01-16T05:02:56.194Z,921.74
2017-01-16T05:03:24.553Z,921.73
2017-01-16T05:03:52.932Z,921.72
2017-01-16T05:04:21.138Z,921.72
2017-01-16T05:04:49.403Z,921.73
2017-01-16T05:05:17.677Z,921.73
2017-01-16T05:05:45.855Z,921.75
2017-01-16T05:06:57.335Z,921.74
2017-01-16T05:07:25.513Z,921.75
2017-01-16T05:07:53.689Z,921.76
2017-01-16T05:08:22.084Z,921.75
2017-01-16T05:08:50.342Z,921.75
2017-01-16T05:09:18.699Z,921.72
2017-01-16T05:09:46.891Z,921.75
2017-01-16T05:10:15.291Z,921.78
2017-01-16T05:10:43.514Z,921.77
2017-01-16T05:11:11.861Z,921.76
2017-01-16T05:11:40.136Z,921.79
2017-01-16T05:12:51.531Z,921.79
2017-01-16T05:13:19.580Z,921.79
2017-01-16T05:13:47.925Z,921.81
2017-01-16T05:14:16.188Z,921.8
2017-01-16T05:14:44.219Z,921.79
2017-01-16T05:15:12.361Z,921.79
2017-01-16T05:15:40.708Z,921.78
2017-01-16T05:16:09.061Z,921.78
2017-01-16T05:16:37.232Z,921.78
2017-01-16T05:17:05.412Z,921.78
2017-01-16T05:17:33.684Z,921.77
2017-01-16T05:18:44.980Z,921.76
2017-01-16T05:19:13.169Z,921.72
2017-01-16T05:19:41.547Z,921.75
2017-01-16T05:20:09.848Z,921.72
2017-01-16T05:20:38.011Z,921.7
2017-01-16T05:21:06.272Z,921.71
2017-01-16T05:21:34.464Z,921.71
2017-01-16T05:22:02.673Z,921.7
2017-01-16T05:22:30.849Z,921.7
2017-01-16T05:22:59.123Z,921.71
2017-01-16T05:23:27.397Z,921.74
2017-01-16T05:24:38.834Z,921.7
2017-01-16T05:25:06.884Z,921.68
2017-01-16T05:25:35.201Z,921.69
2017-01-16T05:26:03.368Z,921.66
2017-01-16T05:26:31.579Z,921.65
2017-01-16T05:26:59.820Z,921.63
2017-01-16T05:27:28.202Z,921.63
2017-01-16T05:27:56.509Z,921.61
2017-01-16T05:28:24.598Z,921.59
2017-01-16T05:28:52.778Z,921.57
2017-01-16T05:29:21.146Z,921.6
2017-01-16T05:30:32.536Z,921.62
2017-01-16T05:31:00.726Z,921.59
2017-01-16T05:31:29.003Z,921.55
2017-01-16T05:31:57.306Z,921.57
2017-01-16T05:32:25.559Z,921.56
2017-01-16T05:32:53.911Z,921.55
2017-01-16T05:33:22.219Z,921.55
2017-01-16T05:33:50.624Z,921.55
2017-01-16T05:34:18.754Z,921.52
2017-01-16T05:34:46.979Z,921.56
2017-01-16T05:35:15.200Z,921.55
2017-01-16T05:36:26.441Z,921.56
2017-01-16T05:36:54.680Z,921.51
2017-01-16T05:37:22.814Z,921.5
2017-01-16T05:37:51.069Z,921.51
2017-01-16T05:38:19.189Z,921.47
2017-01-16T05:38:47.493Z,921.48
2017-01-16T05:39:15.821Z,921.45
2017-01-16T05:39:44.167Z,921.46
2017-01-16T05:40:12.295Z,921.47
2017-01-16T05:40:40.335Z,921.41
2017-01-16T05:41:08.657Z,921.45
2017-01-16T05:42:20.084Z,921.46
2017-01-16T05:42:48.321Z,921.4
2017-01-16T05:43:16.638Z,921.37
2017-01-16T05:43:44.894Z,921.39
2017-01-16T05:44:13.100Z,921.35
2017-01-16T05:44:41.409Z,921.34
2017-01-16T05:45:09.549Z,921.34
2017-01-16T05:45:37.810Z,921.34
2017-01-16T05:46:05.935Z,921.34
2017-01-16T05:46:34.166Z,921.37
2017-01-16T05:47:02.295Z,921.36
2017-01-16T05:48:13.626Z,921.32
2017-01-16T05:48:41.865Z,921.36
2017-01-16T05:49:10.187Z,921.4
2017-01-16T05:49:38.536Z,921.35
2017-01-16T05:50:06.654Z,921.35
2017-01-16T05:50:34.774Z,921.33
2017-01-16T05:51:03.011Z,921.32
2017-01-16T05:51:31.361Z,921.33
2017-01-16T05:51:59.583Z,921.3
2017-01-16T05:52:27.712Z,921.29
2017-01-16T05:52:56.027Z,921.37
2017-01-16T05:54:07.363Z,921.29
2017-01-16T05:54:35.410Z,921.35
2017-01-16T05:55:03.726Z,921.37
2017-01-16T05:55:32.066Z,921.34
2017-01-16T05:56:00.282Z,921.36
2017-01-16T05:56:28.492Z,921.38
2017-01-16T05:56:56.755Z,921.41
2017-01-16T05:57:25.062Z,921.41
2017-01-16T05:57:53.236Z,921.4
2017-01-16T05:58:21.418Z,921.42
2017-01-16T05:58:49.781Z,921.41
2017-01-16T06:00:01.288Z,921.41
2017-01-16T06:00:29.455Z,921.43
2017-01-16T06:00:57.729Z,921.44
2017-01-16T06:01:25.943Z,921.45
2017-01-16T06:01:54.295Z,921.43
2017-01-16T06:02:22.464Z,921.43
2017-01-16T06:02:50.654Z,921.44
2017-01-16T06:03:19.057Z,921.44
2017-01-16T06:03:47.327Z,921.48
2017-01-16T06:04:15.606Z,921.45
2017-01-16T06:04:43.781Z,921.45
2017-01-16T06:05:55.173Z,921.48
2017-01-16T06:06:23.363Z,921.47
2017-01-16T06:06:51.545Z,921.51
2017-01-16T06:07:19.941Z,921.52
2017-01-16T06:07:48.114Z,921.52
2017-01-16T06:08:16.376Z,921.53
2017-01-16T06:08:44.748Z,921.56
2017-01-16T06:09:13.147Z,921.57
2017-01-16T06:09:41.219Z,921.61
2017-01-16T06:10:09.401Z,921.65
2017-01-16T06:10:37.767Z,921.62
2017-01-16T06:11:49.059Z,921.58
2017-01-16T06:12:17.250Z,921.64
2017-01-16T06:12:45.625Z,921.63
2017-01-16T06:13:14.023Z,921.66
2017-01-16T06:13:42.288Z,921.69
2017-01-16T06:14:10.647Z,921.64
2017-01-16T06:14:39.021Z,921.66
2017-01-16T06:15:07.239Z,921.66
2017-01-16T06:15:35.313Z,921.68
2017-01-16T06:16:03.493Z,921.66
2017-01-16T06:16:31.671Z,921.69
2017-01-16T06:17:42.875Z,921.68
2017-01-16T06:18:11.163Z,921.71
2017-01-16T06:18:39.531Z,921.72
2017-01-16T06:19:07.836Z,921.71
2017-01-16T06:19:35.914Z,921.73
2017-01-16T06:20:04.169Z,921.74
2017-01-16T06:20:32.265Z,921.78
2017-01-16T06:21:00.665Z,921.76
2017-01-16T06:21:28.649Z,921.78
2017-01-16T06:21:57.018Z,921.76
2017-01-16T06:22:25.289Z,921.75
2017-01-16T06:23:36.772Z,921.73
2017-01-16T06:24:04.893Z,921.7
2017-01-16T06:24:33.167Z,921.7
2017-01-16T06:25:01.468Z,921.71
2017-01-16T06:25:29.824Z,921.7
2017-01-16T06:25:58.087Z,921.71
2017-01-16T06:26:26.374Z,921.74
2017-01-16T06:26:54.778Z,921.7
2017-01-16T06:27:22.949Z,921.68
2017-01-16T06:27:51.130Z,921.68
2017-01-16T06:28:19.403Z,921.66
2017-01-16T06:29:30.789Z,921.69
2017-01-16T06:29:58.980Z,921.64
2017-01-16T06:30:27.266Z,921.65
2017-01-16T06:30:55.389Z,921.66
2017-01-16T06:31:23.743Z,921.63
2017-01-16T06:31:52.009Z,921.65
2017-01-16T06:32:20.384Z,921.65
2017-01-16T06:32:48.784Z,921.63
2017-01-16T06:33:17.145Z,921.58
2017-01-16T06:33:45.415Z,921.62
2017-01-16T06:34:13.781Z,921.62
2017-01-16T06:35:25.263Z,921.63
2017-01-16T06:35:53.545Z,921.59
2017-01-16T06:36:21.720Z,921.6
2017-01-16T06:36:50.027Z,921.59
2017-01-16T06:37:18.380Z,921.57
2017-01-16T06:37:46.735Z,921.59
2017-01-16T06:38:14.925Z,921.54
2017-01-16T06:38:43.235Z,921.57
2017-01-16T06:39:11.411Z,921.57
2017-01-16T06:39:39.780Z,921.54
2017-01-16T06:40:08.148Z,921.57
2017-01-16T06:41:19.444Z,921.53
2017-01-16T06:41:47.729Z,921.49
2017-01-16T06:42:16.097Z,921.55
2017-01-16T06:42:44.496Z,921.54
2017-01-16T06:43:12.750Z,921.58